createdAt,value
2018-01-12T00:01:49.653Z,37.87
2018-01-12T00:04:15.944Z,37.40
2018-01-12T00:06:43.008Z,36.00
2018-01-12T00:09:10.055Z,35.63
2018-01-12T00:11:37.102Z,39.23
2018-01-12T00:14:04.154Z,38.47
2018-01-12T00:16:31.187Z,37.50
2018-01-12T00:18:58.274Z,41.40
2018-01-12T00:21:24.561Z,38.83
2018-01-12T00:23:51.622Z,39.90
2018-01-12T00:26:18.677Z,40.30
2018-01-12T00:28:44.983Z,38.90
2018-01-12T00:31:11.282Z,41.20
2018-01-12T00:33:37.584Z,41.73
2018-01-12T00:36:03.873Z,38.17
2018-01-12T00:38:30.232Z,42.80
2018-01-12T00:40:56.526Z,40.83
2018-01-12T00:43:22.854Z,40.30
2018-01-12T00:45:49.180Z,40.90
2018-01-12T00:48:15.490Z,40.07
2018-01-12T00:50:41.798Z,43.80
2018-01-12T00:53:08.114Z,40.80
2018-01-12T00:55:34.426Z,43.40
2018-01-12T00:58:01.480Z,42.17
2018-01-12T01:00:28.539Z,44.90
2018-01-12T01:02:54.839Z,44.23
2018-01-12T01:05:21.869Z,44.87
2018-01-12T01:07:48.148Z,45.47
2018-01-12T01:10:14.445Z,45.30
2018-01-12T01:12:41.501Z,47.47
2018-01-12T01:15:08.574Z,45.07
2018-01-12T01:17:34.865Z,45.73
2018-01-12T01:20:02.001Z,44.77
2018-01-12T01:22:28.284Z,44.47
2018-01-12T01:24:54.605Z,42.57
2018-01-12T01:27:20.902Z,43.07
2018-01-12T01:29:47.197Z,43.47
2018-01-12T01:32:13.487Z,45.10
2018-01-12T01:34:39.810Z,45.37
2018-01-12T01:37:06.142Z,45.10
2018-01-12T01:39:32.486Z,45.00
2018-01-12T01:41:58.810Z,46.40
2018-01-12T01:44:25.112Z,41.50
2018-01-12T01:46:51.408Z,42.10
2018-01-12T01:49:17.742Z,43.03
2018-01-12T01:51:44.033Z,43.17
2018-01-12T01:54:10.331Z,44.73
2018-01-12T01:56:37.369Z,43.20
2018-01-12T01:59:03.664Z,43.73
2018-01-12T02:01:29.977Z,43.37
2018-01-12T02:03:56.260Z,41.67
2018-01-12T02:06:22.558Z,41.53
2018-01-12T02:08:48.995Z,43.43
2018-01-12T02:11:15.324Z,44.93
2018-01-12T02:13:41.625Z,42.97
2018-01-12T02:16:07.924Z,44.80
2018-01-12T02:18:34.978Z,44.00
2018-01-12T02:21:02.018Z,43.73
2018-01-12T02:23:29.053Z,43.60
2018-01-12T02:25:56.119Z,44.60
2018-01-12T02:28:23.160Z,44.37
2018-01-12T02:30:50.213Z,44.37
2018-01-12T02:33:17.269Z,44.53
2018-01-12T02:35:44.326Z,43.97
2018-01-12T02:38:10.628Z,45.67
2018-01-12T02:40:37.666Z,43.97
2018-01-12T02:43:03.970Z,43.90
2018-01-12T02:45:30.299Z,43.57
2018-01-12T02:47:56.601Z,44.43
2018-01-12T02:50:22.903Z,42.80
2018-01-12T02:52:49.941Z,44.60
2018-01-12T02:55:16.217Z,43.60
2018-01-12T02:57:42.539Z,46.13
2018-01-12T03:00:08.864Z,45.13
2018-01-12T03:02:35.169Z,46.43
2018-01-12T03:05:01.504Z,44.50
2018-01-12T03:07:28.222Z,41.37
2018-01-12T03:09:55.885Z,43.50
2018-01-12T03:12:22.289Z,44.83
2018-01-12T03:14:48.588Z,45.47
2018-01-12T03:17:14.890Z,42.80
2018-01-12T03:19:41.921Z,43.63
2018-01-12T03:22:08.234Z,46.50
2018-01-12T03:24:34.528Z,44.73
2018-01-12T03:27:00.817Z,43.17
2018-01-12T03:29:27.101Z,43.50
2018-01-12T03:31:53.396Z,44.67
2018-01-12T03:34:20.465Z,44.90
2018-01-12T03:36:46.754Z,43.03
2018-01-12T03:39:13.837Z,43.57
2018-01-12T03:41:40.143Z,44.47
2018-01-12T03:44:07.185Z,45.57
2018-01-12T03:46:34.233Z,42.17
2018-01-12T03:49:01.289Z,42.67
2018-01-12T03:51:28.312Z,42.37
2018-01-12T03:53:54.606Z,41.77
2018-01-12T03:56:20.905Z,41.47
2018-01-12T03:58:47.228Z,44.17
2018-01-12T04:01:14.245Z,42.37
2018-01-12T04:03:40.565Z,41.83
2018-01-12T04:06:06.858Z,43.70
2018-01-12T04:08:33.169Z,44.20
2018-01-12T04:11:00.213Z,41.10
2018-01-12T04:13:27.245Z,44.33
2018-01-12T04:15:54.313Z,42.80
2018-01-12T04:18:21.325Z,42.57
2018-01-12T04:20:47.613Z,41.77
2018-01-12T04:23:13.896Z,42.73
2018-01-12T04:25:40.195Z,41.30
2018-01-12T04:28:06.481Z,44.87
2018-01-12T04:30:32.861Z,46.10
2018-01-12T04:32:59.151Z,42.63
2018-01-12T04:35:25.456Z,41.33
2018-01-12T04:37:52.492Z,42.40
2018-01-12T04:40:19.524Z,39.77
2018-01-12T04:42:45.839Z,43.00
2018-01-12T04:45:12.125Z,42.37
2018-01-12T04:47:38.414Z,42.27
2018-01-12T04:50:04.730Z,43.80
2018-01-12T04:52:31.015Z,44.20
2018-01-12T04:54:57.311Z,43.20
2018-01-12T04:57:23.635Z,44.17
2018-01-12T04:59:50.676Z,43.47
2018-01-12T05:02:16.974Z,41.23
2018-01-12T05:04:43.261Z,41.90
2018-01-12T05:07:10.318Z,42.37
2018-01-12T05:09:36.613Z,42.67
2018-01-12T05:12:03.677Z,42.20
2018-01-12T05:14:29.976Z,40.57
2018-01-12T05:16:56.281Z,42.17
2018-01-12T05:19:22.582Z,45.37
2018-01-12T05:21:49.637Z,42.43
2018-01-12T05:24:16.003Z,43.97
2018-01-12T05:26:42.289Z,41.30
2018-01-12T05:29:09.303Z,42.67
2018-01-12T05:31:35.600Z,43.40
2018-01-12T05:34:01.882Z,42.13
2018-01-12T05:36:28.925Z,44.50
2018-01-12T05:38:55.492Z,41.37
2018-01-12T05:41:21.794Z,44.00
2018-01-12T05:43:48.813Z,42.57
2018-01-12T05:46:15.118Z,39.70
2018-01-12T05:48:41.413Z,40.17
2018-01-12T05:51:07.730Z,43.80
2018-01-12T05:53:34.797Z,43.40
2018-01-12T05:56:01.084Z,41.17
2018-01-12T05:58:27.385Z,43.20
2018-01-12T06:01:06.087Z,40.57
2018-01-12T06:03:45.653Z,40.57
2018-01-12T06:06:20.860Z,39.83
2018-01-12T06:08:47.176Z,39.80
2018-01-12T06:11:14.209Z,39.50
2018-01-12T06:13:40.493Z,39.80
2018-01-12T06:16:06.786Z,39.10
2018-01-12T06:18:33.095Z,39.37
2018-01-12T06:21:00.127Z,39.40
2018-01-12T06:23:26.425Z,39.00
2018-01-12T06:25:52.712Z,39.60
2018-01-12T06:28:19.747Z,40.10
2018-01-12T06:30:46.020Z,40.80
2018-01-12T06:33:12.332Z,39.83
2018-01-12T06:35:39.340Z,40.40
2018-01-12T06:38:05.658Z,41.03
2018-01-12T06:40:31.956Z,38.10
2018-01-12T06:43:04.509Z,39.73
2018-01-12T19:00:40.750Z,24.17
2018-01-12T19:03:07.059Z,25.80
2018-01-12T19:05:34.098Z,26.27
2018-01-12T19:08:00.514Z,26.93
2018-01-12T19:10:26.845Z,25.30
2018-01-12T19:12:54.672Z,26.00
2018-01-12T19:15:20.979Z,26.83
2018-01-12T19:17:47.423Z,26.17
2018-01-12T19:20:13.725Z,26.57
2018-01-12T19:22:40.900Z,24.60
2018-01-12T19:25:07.205Z,25.70
2018-01-12T19:27:34.267Z,27.10
2018-01-12T19:30:00.582Z,25.60
2018-01-12T19:32:27.642Z,25.17
2018-01-12T19:34:53.951Z,27.70
2018-01-12T19:37:20.332Z,24.83
2018-01-12T19:39:46.683Z,24.50
2018-01-12T19:42:13.038Z,24.60
2018-01-12T19:44:40.180Z,25.60
2018-01-12T19:47:06.479Z,24.70
2018-01-12T19:49:32.824Z,24.33
2018-01-12T19:52:00.107Z,26.30
2018-01-12T19:54:27.145Z,25.93
2018-01-12T19:56:53.634Z,24.57
2018-01-12T19:59:19.953Z,25.63
2018-01-12T20:01:46.265Z,24.83
2018-01-12T20:04:12.585Z,27.60
2018-01-12T20:06:39.918Z,24.60
2018-01-12T20:09:06.234Z,24.67
2018-01-12T20:11:32.551Z,25.00
2018-01-12T20:13:58.998Z,26.93
2018-01-12T20:16:25.434Z,24.73
2018-01-12T20:18:52.582Z,25.03
2018-01-12T20:21:18.860Z,24.77
2018-01-12T20:23:45.987Z,25.70
2018-01-12T20:26:13.057Z,26.53
2018-01-12T20:28:39.360Z,25.00
2018-01-12T20:31:05.661Z,26.20
2018-01-12T20:33:32.108Z,26.10
2018-01-12T20:36:01.106Z,24.10
2018-01-12T20:38:27.463Z,24.83
2018-01-12T20:40:54.572Z,26.67
2018-01-12T20:43:20.927Z,25.27
2018-01-12T20:45:48.755Z,24.63
2018-01-12T20:48:15.085Z,24.47
2018-01-12T20:50:41.388Z,25.37
2018-01-12T20:53:07.744Z,25.83
2018-01-12T20:55:34.164Z,25.50
2018-01-12T20:58:00.514Z,24.00
2018-01-12T21:00:26.873Z,26.40
2018-01-12T21:02:53.933Z,25.23
2018-01-12T21:05:20.373Z,25.67
2018-01-12T21:07:46.724Z,26.30
2018-01-12T21:10:13.049Z,24.90
2018-01-12T21:12:39.387Z,25.77
2018-01-12T21:15:05.858Z,26.30
2018-01-12T21:17:32.179Z,26.57
2018-01-12T21:19:58.486Z,26.83
2018-01-12T21:22:24.794Z,27.13
2018-01-12T21:24:51.910Z,27.17
2018-01-12T21:27:18.219Z,26.83
2018-01-12T21:29:44.530Z,28.13
2018-01-12T21:32:10.818Z,30.70
2018-01-12T21:34:37.935Z,29.03
2018-01-12T21:37:04.221Z,28.80
2018-01-12T21:39:30.576Z,28.23
2018-01-12T21:41:56.902Z,26.37
2018-01-12T21:44:23.261Z,29.03
2018-01-12T21:46:49.708Z,27.50
2018-01-12T21:49:16.225Z,28.03
2018-01-12T21:51:42.600Z,28.80
2018-01-12T21:54:08.894Z,27.30
2018-01-12T21:56:35.218Z,28.47
2018-01-12T21:59:01.553Z,28.13
2018-01-12T22:01:27.840Z,28.90
2018-01-12T22:03:54.145Z,29.50
2018-01-12T22:06:21.236Z,28.27
2018-01-12T22:08:47.623Z,28.13
2018-01-12T22:11:13.962Z,29.53
2018-01-12T22:13:41.006Z,27.17
2018-01-12T22:16:08.042Z,28.50
2018-01-12T22:18:35.098Z,28.40
2018-01-12T22:21:02.251Z,29.57
2018-01-12T22:23:28.708Z,29.53
2018-01-12T22:25:55.026Z,29.87
2018-01-12T22:28:21.379Z,28.83
2018-01-12T22:30:48.561Z,30.00
2018-01-12T22:33:14.859Z,27.40
2018-01-12T22:35:41.275Z,28.57
2018-01-12T22:38:07.585Z,29.83
2018-01-12T22:40:34.661Z,29.67
2018-01-12T22:43:01.032Z,28.70
2018-01-12T22:45:27.365Z,29.37
2018-01-12T22:47:53.784Z,27.33
2018-01-12T22:50:20.122Z,28.93
2018-01-12T22:52:47.209Z,28.60
2018-01-12T22:55:14.248Z,30.17
2018-01-12T22:57:41.272Z,28.40
2018-01-12T23:00:07.615Z,29.47
2018-01-12T23:02:33.987Z,29.77
2018-01-12T23:05:00.303Z,30.20
2018-01-12T23:07:26.693Z,28.80
2018-01-12T23:09:53.043Z,30.60
2018-01-12T23:12:20.164Z,29.97
2018-01-12T23:14:47.294Z,31.23
2018-01-12T23:17:13.622Z,29.47
2018-01-12T23:19:39.909Z,30.40
2018-01-12T23:22:06.979Z,30.37
2018-01-12T23:24:33.311Z,29.00
2018-01-12T23:26:59.656Z,31.17
2018-01-12T23:29:25.992Z,30.00
2018-01-12T23:31:52.340Z,30.60
2018-01-12T23:34:18.916Z,30.70
2018-01-12T23:36:45.960Z,31.97
2018-01-12T23:39:13.020Z,31.00
2018-01-12T23:41:39.366Z,32.20
2018-01-12T23:44:05.827Z,32.47
2018-01-12T23:46:32.147Z,32.07
2018-01-12T23:48:58.462Z,33.10
2018-01-12T23:51:24.822Z,32.03
2018-01-12T23:53:51.121Z,32.07
2018-01-12T23:56:17.427Z,33.33
2018-01-12T23:58:44.598Z,32.90
